Time;durP1;ratioP1;P1;durP2;ratioP2;P2;SDS_P1;SDS_P2;PMS_P1;PMS_P2;Temp;Humidity;BMP_temperature;BMP_pressure;BME280_temperature;BME280_humidity;BME280_pressure;Samples;Min_cycle;Max_cycle;Signal;HPM_P1;HPM_P2
2023/07/17 00:01:41;;;;;;;17.13;7.55;;;;;;;18.74;100.00;97572.75;5086091;28;20419;-74
2023/07/17 00:04:07;;;;;;;13.70;7.53;;;;;;;18.73;100.00;97568.50;5073217;28;20430;-74
2023/07/17 00:06:33;;;;;;;16.00;7.88;;;;;;;18.74;100.00;97570.88;5070032;28;20494;-74
2023/07/17 00:09:01;;;;;;;16.15;7.75;;;;;;;18.76;100.00;97579.44;5076029;28;20423;-74
2023/07/17 00:11:27;;;;;;;17.40;8.00;;;;;;;18.77;100.00;97581.03;5058530;28;20508;-74
2023/07/17 00:13:55;;;;;;;14.70;7.37;;;;;;;18.74;100.00;97583.50;5071494;28;20574;-74
2023/07/17 00:16:22;;;;;;;14.57;8.68;;;;;;;18.76;100.00;97578.63;5071088;28;20400;-74
2023/07/17 00:18:49;;;;;;;15.48;7.97;;;;;;;18.78;100.00;97581.81;5075689;28;20417;-74
2023/07/17 00:21:18;;;;;;;14.77;7.95;;;;;;;18.78;100.00;97579.94;5042897;28;20420;-74
2023/07/17 00:23:47;;;;;;;15.55;8.30;;;;;;;18.78;100.00;97581.81;5077753;28;20420;-74
2023/07/17 00:26:13;;;;;;;13.75;7.47;;;;;;;18.79;100.00;97573.47;5086784;28;20409;-74
2023/07/17 00:28:40;;;;;;;11.60;7.18;;;;;;;18.81;100.00;97568.59;5080316;28;20491;-74
2023/07/17 00:31:06;;;;;;;14.77;8.18;;;;;;;18.82;100.00;97564.81;5078305;28;20490;-74
2023/07/17 00:33:34;;;;;;;10.17;6.60;;;;;;;18.83;100.00;97560.25;5063407;28;20410;-74
2023/07/17 00:36:00;;;;;;;10.25;6.60;;;;;;;18.79;100.00;97553.91;5073842;28;20471;-74
2023/07/17 00:38:27;;;;;;;11.02;6.75;;;;;;;18.81;100.00;97567.78;5085591;28;20403;-74
2023/07/17 00:40:53;;;;;;;15.18;7.70;;;;;;;18.79;100.00;97578.84;5083374;28;20428;-74
2023/07/17 00:43:19;;;;;;;12.57;7.30;;;;;;;18.80;100.00;97568.88;5067458;28;20426;-74
2023/07/17 00:45:47;;;;;;;12.68;7.47;;;;;;;18.77;100.00;97564.94;5094809;28;20484;-75
2023/07/17 00:48:15;;;;;;;9.65;6.30;;;;;;;18.75;100.00;97566.31;5093221;28;20779;-74
2023/07/17 00:50:42;;;;;;;12.70;6.85;;;;;;;18.76;100.00;97559.88;5091567;28;20462;-74
2023/07/17 00:53:10;;;;;;;11.00;7.18;;;;;;;18.78;100.00;97560.38;5090873;28;20409;-74
2023/07/17 00:55:38;;;;;;;14.20;7.20;;;;;;;18.79;100.00;97568.13;5095991;28;20432;-74
2023/07/17 00:58:06;;;;;;;12.65;7.22;;;;;;;18.80;100.00;97567.00;5085269;28;20398;-74
2023/07/17 01:00:33;;;;;;;15.95;6.57;;;;;;;18.80;100.00;97563.53;5088558;28;20466;-74
2023/07/17 01:03:02;;;;;;;11.25;6.68;;;;;;;18.83;100.00;97573.66;5061502;28;20896;-74
2023/07/17 01:05:28;;;;;;;17.85;7.35;;;;;;;18.82;100.00;97572.06;5078933;28;20883;-74
2023/07/17 01:07:56;;;;;;;15.93;7.18;;;;;;;18.82;100.00;97569.38;5079691;28;20403;-74
2023/07/17 01:10:25;;;;;;;12.40;6.65;;;;;;;18.83;100.00;97562.94;5077541;28;20497;-74
2023/07/17 01:12:51;;;;;;;13.32;6.80;;;;;;;18.84;100.00;97564.53;5058677;28;20393;-74
2023/07/17 01:15:18;;;;;;;12.07;6.25;;;;;;;18.85;100.00;97564.22;5066646;28;20400;-74
2023/07/17 01:17:44;;;;;;;11.48;6.13;;;;;;;18.86;100.00;97562.34;5081410;28;20485;-74
2023/07/17 01:20:11;;;;;;;12.27;6.13;;;;;;;18.88;100.00;97579.72;5085829;28;20421;-74
2023/07/17 01:22:49;;;;;;;10.00;5.65;;;;;;;18.89;100.00;97580.50;5057166;28;20457;-74
2023/07/17 01:25:15;;;;;;;10.73;5.85;;;;;;;18.89;100.00;97594.72;5089209;22;20418;-77
2023/07/17 01:27:43;;;;;;;15.65;6.20;;;;;;;18.92;100.00;97593.34;5090046;28;21285;-77
2023/07/17 01:30:10;;;;;;;10.93;6.10;;;;;;;18.94;100.00;97580.41;5091046;28;20401;-77
2023/07/17 01:32:36;;;;;;;10.05;5.85;;;;;;;18.97;100.00;97581.69;5072416;28;20973;-77
2023/07/17 01:35:03;;;;;;;9.60;5.40;;;;;;;18.96;100.00;97575.53;5090815;28;20413;-77
2023/07/17 01:37:29;;;;;;;8.63;4.70;;;;;;;18.94;100.00;97583.88;5090824;28;20399;-77
2023/07/17 01:39:57;;;;;;;7.13;4.60;;;;;;;18.95;100.00;97576.63;5090875;28;20739;-77
2023/07/17 01:42:23;;;;;;;9.60;4.95;;;;;;;18.88;100.00;97576.22;5090659;28;20436;-77
2023/07/17 01:44:49;;;;;;;7.18;4.68;;;;;;;18.98;100.00;97580.59;5090660;28;20432;-77
2023/07/17 01:47:15;;;;;;;6.72;4.70;;;;;;;19.01;100.00;97578.13;5090901;28;20890;-77
2023/07/17 01:49:42;;;;;;;6.45;4.40;;;;;;;19.04;100.00;97576.72;5090608;28;20410;-77
2023/07/17 01:52:10;;;;;;;9.82;5.13;;;;;;;19.03;100.00;97588.53;5090560;28;20794;-77
2023/07/17 01:54:36;;;;;;;7.28;4.10;;;;;;;19.04;100.00;97584.75;5090576;28;20402;-77
2023/07/17 01:57:04;;;;;;;7.78;4.32;;;;;;;19.03;100.00;97588.53;5090698;28;20856;-77
2023/07/17 01:59:31;;;;;;;8.35;4.90;;;;;;;18.98;100.00;97588.66;5090495;28;20395;-77
2023/07/17 02:01:57;;;;;;;7.55;4.50;;;;;;;18.95;100.00;97582.78;5090529;28;20410;-77
2023/07/17 02:04:23;;;;;;;9.83;4.83;;;;;;;18.97;100.00;97584.38;5072090;28;21045;-77
2023/07/17 02:06:49;;;;;;;9.88;5.03;;;;;;;19.02;100.00;97581.59;5090684;28;20412;-77
2023/07/17 02:09:15;;;;;;;10.35;5.22;;;;;;;19.02;100.00;97576.25;5090391;28;20492;-77
2023/07/17 02:11:41;;;;;;;10.50;4.85;;;;;;;18.99;100.00;97572.25;5090412;28;20402;-77
2023/07/17 02:14:09;;;;;;;8.43;4.40;;;;;;;18.98;100.00;97580.59;5090377;28;20822;-77
2023/07/17 02:16:35;;;;;;;7.50;4.53;;;;;;;18.86;100.00;97581.91;5090408;28;20432;-77
2023/07/17 02:19:01;;;;;;;11.43;5.20;;;;;;;18.94;100.00;97588.47;5090487;28;20489;-77
2023/07/17 02:21:27;;;;;;;12.43;4.90;;;;;;;18.77;100.00;97582.91;5090286;28;20413;-77
2023/07/17 02:23:54;;;;;;;8.02;4.57;;;;;;;18.77;100.00;97586.38;5090324;28;20402;-77
2023/07/17 02:26:20;;;;;;;10.40;4.80;;;;;;;18.83;100.00;97579.03;5090194;28;20806;-77
2023/07/17 02:28:46;;;;;;;7.68;4.82;;;;;;;18.83;100.00;97581.72;5090272;28;20440;-77
2023/07/17 02:31:14;;;;;;;7.30;4.30;;;;;;;18.81;100.00;97587.38;5072039;28;20880;-77
2023/07/17 02:33:40;;;;;;;8.60;4.90;;;;;;;18.80;100.00;97601.06;5090165;28;20467;-77
2023/07/17 02:36:06;;;;;;;8.98;4.80;;;;;;;18.82;100.00;97602.38;5093710;28;20402;-77
2023/07/17 02:38:33;;;;;;;6.55;4.45;;;;;;;18.80;100.00;97598.38;5093863;28;20517;-77
2023/07/17 02:40:59;;;;;;;6.72;4.35;;;;;;;18.81;100.00;97598.09;5093861;28;20406;-77
2023/07/17 02:43:25;;;;;;;10.43;4.82;;;;;;;18.77;100.00;97597.13;5093649;28;20487;-77
2023/07/17 02:45:51;;;;;;;7.43;4.13;;;;;;;18.79;100.00;97594.16;5093620;28;20402;-77
2023/07/17 02:48:19;;;;;;;8.48;4.50;;;;;;;18.77;100.00;97601.69;5093732;28;20548;-77
2023/07/17 02:50:49;;;;;;;7.82;4.07;;;;;;;18.77;100.00;97601.69;5093538;28;20398;-77
2023/07/17 02:53:15;;;;;;;6.20;3.70;;;;;;;18.74;100.00;97613.78;5093534;28;20400;-77
2023/07/17 02:55:42;;;;;;;8.93;4.53;;;;;;;18.74;100.00;97610.31;5093419;28;20409;-77
2023/07/17 02:58:09;;;;;;;6.57;4.50;;;;;;;18.74;100.00;97615.69;5093592;28;20404;-77
2023/07/17 03:00:35;;;;;;;7.35;4.03;;;;;;;18.74;100.00;97621.03;5093539;28;20433;-77
2023/07/17 03:03:02;;;;;;;8.10;4.28;;;;;;;18.69;100.00;97618.47;5093308;28;20451;-77
2023/07/17 03:05:30;;;;;;;6.25;4.45;;;;;;;18.68;100.00;97633.75;5093113;28;20394;-77
2023/07/17 03:07:56;;;;;;;11.73;4.45;;;;;;;18.66;100.00;97629.78;5093353;28;20463;-77
2023/07/17 03:10:22;;;;;;;7.47;4.87;;;;;;;18.62;100.00;97626.91;5093396;28;20409;-77
2023/07/17 03:12:48;;;;;;;14.15;5.57;;;;;;;18.65;100.00;97636.22;5093214;28;20493;-77
2023/07/17 03:15:14;;;;;;;12.15;5.78;;;;;;;18.52;100.00;97627.84;5093158;28;20425;-77
2023/07/17 03:17:41;;;;;;;7.93;4.80;;;;;;;18.59;100.00;97629.38;5093414;28;20405;-77
2023/07/17 03:20:10;;;;;;;9.93;5.03;;;;;;;18.63;100.00;97636.53;5093153;28;20401;-77
2023/07/17 03:22:38;;;;;;;15.95;5.65;;;;;;;18.58;100.00;97636.63;5092865;28;20502;-77
2023/07/17 03:25:05;;;;;;;9.63;4.93;;;;;;;18.58;100.00;97638.50;5092798;28;20477;-77
2023/07/17 03:27:32;;;;;;;8.13;4.40;;;;;;;18.56;100.00;97638.81;5074977;28;20490;-77
2023/07/17 03:29:58;;;;;;;10.63;4.20;;;;;;;18.53;100.00;97639.38;5072688;28;20418;-77
2023/07/17 03:32:24;;;;;;;7.60;5.10;;;;;;;18.60;100.00;97639.00;5072525;28;20410;-77
2023/07/17 03:34:51;;;;;;;10.32;5.07;;;;;;;18.54;100.00;97638.28;5072480;28;20442;-77
2023/07/17 03:37:17;;;;;;;11.13;5.13;;;;;;;18.50;100.00;97637.25;5072608;28;20411;-77
2023/07/17 03:39:44;;;;;;;10.55;4.88;;;;;;;18.59;100.00;97630.16;5072527;28;20419;-77
2023/07/17 03:42:10;;;;;;;10.10;4.75;;;;;;;18.55;100.00;97624.59;5072275;28;20731;-77
2023/07/17 03:44:37;;;;;;;8.77;4.45;;;;;;;18.55;100.00;97640.66;5072091;28;20435;-77
2023/07/17 03:47:04;;;;;;;7.60;4.00;;;;;;;18.54;100.00;97640.97;5072359;28;20512;-77
2023/07/17 03:49:30;;;;;;;8.67;4.60;;;;;;;18.53;100.00;97637.47;5072053;28;20412;-77
2023/07/17 03:51:58;;;;;;;9.40;4.95;;;;;;;18.53;100.00;97642.06;5072083;28;20897;-77
2023/07/17 03:54:24;;;;;;;11.45;4.72;;;;;;;18.51;100.00;97638.88;5073037;28;20400;-77
2023/07/17 03:56:51;;;;;;;7.10;4.30;;;;;;;18.47;100.00;97633.31;5073199;28;20497;-77
2023/07/17 03:59:23;;;;;;;10.23;4.88;;;;;;;18.45;100.00;97643.53;5085536;28;20398;-77
2023/07/17 04:01:50;;;;;;;7.90;4.28;;;;;;;18.44;100.00;97643.81;5088345;28;20443;-77
2023/07/17 04:04:16;;;;;;;9.67;4.90;;;;;;;18.41;100.00;97647.91;5090006;28;20401;-77
2023/07/17 04:06:42;;;;;;;12.88;5.57;;;;;;;18.40;100.00;97653.56;5090138;28;20422;-76
2023/07/17 04:09:09;;;;;;;9.13;5.07;;;;;;;18.33;100.00;97658.50;5088020;28;20432;-76
2023/07/17 04:11:35;;;;;;;8.20;5.40;;;;;;;18.28;100.00;97658.56;5089653;28;20933;-76
2023/07/17 04:14:03;;;;;;;11.13;5.40;;;;;;;18.24;100.00;97665.63;5087387;28;20406;-76
2023/07/17 04:16:29;;;;;;;10.35;5.40;;;;;;;18.16;100.00;97664.41;5086574;28;20751;-77
2023/07/17 04:18:55;;;;;;;10.43;5.55;;;;;;;18.16;100.00;97667.88;5088634;28;20405;-76
2023/07/17 04:21:22;;;;;;;10.27;5.65;;;;;;;18.14;100.00;97662.00;5091987;28;20404;-76
2023/07/17 04:23:50;;;;;;;11.20;5.68;;;;;;;18.13;100.00;97663.09;5091665;28;20488;-76
2023/07/17 04:26:17;;;;;;;12.93;5.93;;;;;;;18.12;100.00;97669.53;5080608;28;20402;-76
2023/07/17 04:28:43;;;;;;;13.45;6.10;;;;;;;18.08;100.00;97663.19;5091492;28;20422;-76
2023/07/17 04:31:11;;;;;;;10.95;5.90;;;;;;;18.12;100.00;97672.22;5085386;28;20463;-75
2023/07/17 04:33:37;;;;;;;11.43;6.05;;;;;;;18.11;100.00;97678.69;5087298;28;20405;-75
2023/07/17 04:36:07;;;;;;;14.52;6.15;;;;;;;18.17;100.00;97672.16;5087677;28;20402;-76
2023/07/17 04:38:33;;;;;;;14.52;6.20;;;;;;;18.17;100.00;97680.19;5091235;28;20933;-76
2023/07/17 04:40:59;;;;;;;8.98;5.28;;;;;;;18.17;100.00;97674.81;5091308;28;20398;-76
2023/07/17 04:43:25;;;;;;;8.60;5.13;;;;;;;18.23;100.00;97682.78;5090375;28;20754;-76
2023/07/17 04:45:51;;;;;;;6.78;4.95;;;;;;;18.26;100.00;97682.19;5090191;28;20409;-76
2023/07/17 04:48:19;;;;;;;9.48;4.82;;;;;;;18.29;100.00;97692.31;5091381;28;20401;-76
2023/07/17 04:50:46;;;;;;;12.18;5.25;;;;;;;18.31;100.00;97690.16;5091070;28;20402;-74
2023/07/17 04:53:12;;;;;;;11.07;5.13;;;;;;;18.43;100.00;97685.09;5090942;28;20470;-74
2023/07/17 04:55:38;;;;;;;11.60;5.57;;;;;;;18.46;100.00;97681.84;5090666;28;20409;-75
2023/07/17 04:58:04;;;;;;;7.60;5.00;;;;;;;18.53;100.00;97680.38;5090576;28;20814;-75
2023/07/17 05:00:33;;;;;;;10.43;5.43;;;;;;;18.55;100.00;97686.25;5090602;28;20763;-75
2023/07/17 05:02:59;;;;;;;9.18;4.88;;;;;;;18.61;100.00;97678.94;5090708;28;20405;-74
2023/07/17 05:05:27;;;;;;;13.90;5.23;;;;;;;18.67;100.00;97679.63;5090925;28;20462;-73
2023/07/17 05:07:53;;;;;;;8.35;4.75;;;;;;;18.72;100.00;97677.66;5090887;28;20940;-73
2023/07/17 05:10:20;;;;;;;9.85;4.53;;;;;;;18.77;100.00;97672.22;5090655;28;20497;-73
2023/07/17 05:12:46;;;;;;;8.02;4.35;;;;;;;18.74;100.00;97680.03;5090101;28;20398;-73
2023/07/17 05:15:12;;;;;;;5.72;4.25;;;;;;;18.74;100.00;97682.72;5090201;28;20405;-73
2023/07/17 05:17:38;;;;;;;11.77;4.55;;;;;;;18.72;100.00;97690.28;5072372;28;20493;-73
2023/07/17 05:20:07;;;;;;;14.43;5.35;;;;;;;18.78;100.00;97687.22;5090505;28;20397;-73
2023/07/17 05:22:34;;;;;;;9.80;4.93;;;;;;;18.73;100.00;97687.28;5090057;28;20418;-73
2023/07/17 05:25:00;;;;;;;6.13;4.20;;;;;;;18.75;100.00;97695.84;5090015;28;20398;-73
2023/07/17 05:27:26;;;;;;;6.50;4.13;;;;;;;18.79;100.00;97688.81;5090391;28;20467;-73
2023/07/17 05:29:53;;;;;;;8.10;4.47;;;;;;;18.84;100.00;97685.22;5090336;28;20413;-73
2023/07/17 05:32:19;;;;;;;6.90;4.43;;;;;;;18.89;100.00;97685.91;5090109;28;20394;-73
2023/07/17 05:34:45;;;;;;;10.00;4.85;;;;;;;18.90;100.00;97698.25;5090123;28;20431;-73
2023/07/17 05:37:12;;;;;;;11.02;4.75;;;;;;;18.80;100.00;97693.06;5090461;28;20410;-73
2023/07/17 05:39:39;;;;;;;10.15;4.38;;;;;;;18.68;100.00;97700.00;5090093;28;20401;-73
2023/07/17 05:42:05;;;;;;;8.68;4.43;;;;;;;18.71;100.00;97688.69;5089760;28;20772;-73
2023/07/17 05:44:32;;;;;;;7.00;4.00;;;;;;;18.78;100.00;97699.81;5071883;28;20408;-73
2023/07/17 05:46:58;;;;;;;7.93;3.90;;;;;;;18.86;100.00;97701.81;5090261;28;20406;-73
2023/07/17 05:49:24;;;;;;;8.43;4.28;;;;;;;18.89;100.00;97707.38;5090101;28;20486;-73
2023/07/17 05:51:50;;;;;;;5.80;3.95;;;;;;;18.89;100.00;97704.69;5090311;28;20454;-73
2023/07/17 05:54:16;;;;;;;7.28;4.10;;;;;;;18.95;100.00;97706.19;5089668;28;20853;-73
2023/07/17 05:56:44;;;;;;;10.82;4.28;;;;;;;18.98;100.00;97710.16;5085730;28;20401;-73
2023/07/17 05:59:10;;;;;;;9.13;4.82;;;;;;;19.11;100.00;97704.00;5088905;28;20394;-73
2023/07/17 06:01:36;;;;;;;7.45;4.20;;;;;;;19.07;100.00;97711.09;5089642;28;20501;-73
2023/07/17 06:04:03;;;;;;;7.88;4.13;;;;;;;19.21;100.00;97716.44;5089294;28;20421;-72
2023/07/17 06:06:29;;;;;;;6.53;4.13;;;;;;;19.16;100.00;97713.88;5092742;28;20392;-73
2023/07/17 06:08:56;;;;;;;5.60;3.47;;;;;;;19.18;100.00;97727.75;5082348;28;20777;-74
2023/07/17 06:11:22;;;;;;;5.80;3.65;;;;;;;19.23;100.00;97733.06;5086861;28;20799;-75
2023/07/17 06:13:50;;;;;;;7.70;4.30;;;;;;;19.26;100.00;97727.88;5085589;28;20402;-74
2023/07/17 06:16:17;;;;;;;9.67;4.17;;;;;;;19.33;100.00;97730.94;5091722;28;20453;-75
2023/07/17 06:18:43;;;;;;;8.23;4.15;;;;;;;19.39;100.00;97730.88;5088615;28;20401;-74
2023/07/17 06:21:09;;;;;;;8.93;4.50;;;;;;;19.43;100.00;97731.84;5085991;28;20798;-73
2023/07/17 06:23:36;;;;;;;7.57;4.13;;;;;;;19.46;100.00;97732.06;5078372;28;20411;-74
2023/07/17 06:26:03;;;;;;;10.63;4.80;;;;;;;19.64;100.00;97733.03;5092406;28;20857;-74
2023/07/17 06:28:30;;;;;;;9.65;3.83;;;;;;;19.56;100.00;97736.44;5087383;28;20500;-75
2023/07/17 06:30:58;;;;;;;7.38;4.10;;;;;;;19.64;100.00;97736.53;5085432;28;20437;-75
2023/07/17 06:33:25;;;;;;;10.00;4.25;;;;;;;19.68;100.00;97734.03;5089595;28;20729;-76
2023/07/17 06:35:51;;;;;;;6.45;3.70;;;;;;;19.62;100.00;97735.25;5090110;28;20760;-76
2023/07/17 06:38:17;;;;;;;12.07;4.63;;;;;;;19.53;100.00;97737.06;5087240;28;20405;-75
2023/07/17 06:40:43;;;;;;;7.53;3.90;;;;;;;19.54;100.00;97739.44;5089542;28;20415;-75
2023/07/17 06:43:10;;;;;;;5.85;3.50;;;;;;;19.63;100.00;97742.19;5081485;28;20422;-76
2023/07/17 06:45:36;;;;;;;7.40;3.93;;;;;;;19.77;100.00;97737.63;5087296;28;20406;-78
2023/07/17 06:48:04;;;;;;;8.20;4.32;;;;;;;19.80;100.00;97730.81;5089105;28;20402;-75
2023/07/17 06:50:30;;;;;;;23.08;5.00;;;;;;;20.05;100.00;97732.97;5088682;28;20445;-76
2023/07/17 06:52:56;;;;;;;29.55;5.75;;;;;;;20.04;100.00;97736.75;5089213;28;21169;-76
2023/07/17 06:55:22;;;;;;;8.02;4.20;;;;;;;19.96;100.00;97732.88;5071051;28;20412;-74
2023/07/17 06:57:49;;;;;;;5.75;3.50;;;;;;;19.94;100.00;97732.38;5083291;28;20455;-75
2023/07/17 07:00:17;;;;;;;11.05;4.50;;;;;;;20.06;100.00;97732.66;5090455;28;20491;-77
2023/07/17 07:02:43;;;;;;;8.15;4.35;;;;;;;19.95;100.00;97728.59;5089132;28;20438;-76
2023/07/17 07:05:11;;;;;;;11.55;4.47;;;;;;;20.03;100.00;97730.56;5087984;28;20483;-76
2023/07/17 07:07:37;;;;;;;9.75;4.53;;;;;;;19.83;100.00;97722.97;5084049;28;20438;-75
2023/07/17 07:10:04;;;;;;;8.17;4.37;;;;;;;19.89;100.00;97729.81;5083720;28;20449;-75
2023/07/17 07:12:30;;;;;;;17.27;5.37;;;;;;;20.05;100.00;97730.28;5083027;28;20398;-76
2023/07/17 07:14:56;;;;;;;13.63;5.13;;;;;;;20.36;100.00;97736.56;5084286;28;20411;-76
2023/07/17 07:17:23;;;;;;;8.57;4.25;;;;;;;20.21;100.00;97726.16;5062863;28;20469;-75
2023/07/17 07:19:51;;;;;;;11.70;4.70;;;;;;;20.07;100.00;97725.41;5079484;28;20489;-75
2023/07/17 07:22:18;;;;;;;8.75;4.80;;;;;;;20.25;100.00;97732.47;5083538;28;20402;-75
2023/07/17 07:24:46;;;;;;;12.23;5.07;;;;;;;20.38;100.00;97734.34;5062004;28;20889;-75
2023/07/17 07:27:12;;;;;;;8.75;4.93;;;;;;;20.30;100.00;97735.03;5080218;28;20445;-75
2023/07/17 07:29:39;;;;;;;7.47;4.93;;;;;;;20.24;100.00;97722.81;5081783;28;20784;-76
2023/07/17 07:32:08;;;;;;;6.13;4.88;;;;;;;20.26;100.00;97726.00;5083382;28;21430;-76
2023/07/17 07:34:34;;;;;;;11.35;4.57;;;;;;;20.63;100.00;97730.25;5087339;28;20413;-74
2023/07/17 07:37:00;;;;;;;7.65;5.07;;;;;;;20.46;100.00;97739.00;5079120;28;20407;-72
2023/07/17 07:39:28;;;;;;;5.80;4.43;;;;;;;20.49;100.00;97740.28;5079295;28;20484;-73
2023/07/17 07:41:54;;;;;;;10.77;5.90;;;;;;;20.41;100.00;97743.69;5086558;28;20440;-76
2023/07/17 07:44:20;;;;;;;11.77;6.22;;;;;;;20.49;100.00;97742.97;5086048;28;20820;-72
2023/07/17 07:46:46;;;;;;;11.98;5.82;;;;;;;20.58;100.00;97732.28;5085642;28;20424;-74
2023/07/17 07:49:13;;;;;;;9.40;5.78;;;;;;;20.52;100.00;97736.19;5083836;28;20409;-73
2023/07/17 07:51:39;;;;;;;12.90;6.00;;;;;;;20.51;100.00;97734.59;5087538;28;20402;-74
2023/07/17 07:54:06;;;;;;;14.55;6.57;;;;;;;20.74;100.00;97738.88;5088964;28;20884;-73
2023/07/17 07:56:33;;;;;;;14.07;5.82;;;;;;;20.53;100.00;97735.06;5086771;28;20417;-73
2023/07/17 07:58:59;;;;;;;11.48;5.68;;;;;;;20.53;100.00;97732.38;5088651;28;20417;-73
2023/07/17 08:01:26;;;;;;;10.73;5.85;;;;;;;20.72;100.00;97741.84;5085778;28;20491;-74
2023/07/17 08:03:52;;;;;;;13.60;6.33;;;;;;;20.60;100.00;97744.28;5090727;28;20810;-75
2023/07/17 08:06:18;;;;;;;8.98;5.13;;;;;;;20.65;100.00;97743.41;5091881;28;20488;-75
2023/07/17 08:08:44;;;;;;;11.32;5.78;;;;;;;20.67;100.00;97741.19;5091757;28;20862;-74
2023/07/17 08:11:10;;;;;;;15.93;6.25;;;;;;;20.65;100.00;97746.09;5091875;28;20551;-73
2023/07/17 08:13:38;;;;;;;10.20;5.60;;;;;;;20.80;100.00;97743.00;5091522;28;20417;-72
2023/07/17 08:16:04;;;;;;;8.02;5.35;;;;;;;20.81;100.00;97749.97;5091358;28;20875;-73
2023/07/17 08:18:30;;;;;;;8.25;5.28;;;;;;;20.82;100.00;97744.28;5091713;28;20744;-73
2023/07/17 08:20:56;;;;;;;7.50;5.18;;;;;;;20.86;100.00;97741.78;5091349;28;20394;-73
2023/07/17 08:23:27;;;;;;;7.82;5.18;;;;;;;21.00;100.00;97739.00;5091445;28;20402;-75
2023/07/17 08:25:53;;;;;;;10.68;5.57;;;;;;;21.10;100.00;97752.97;5090618;28;20398;-73
2023/07/17 08:28:19;;;;;;;8.68;5.03;;;;;;;20.98;100.00;97757.34;5081148;28;20417;-74
2023/07/17 08:30:50;;;;;;;7.78;5.10;;;;;;;21.08;100.00;97751.69;5089962;28;20417;-74
2023/07/17 08:33:16;;;;;;;8.88;4.88;;;;;;;21.33;100.00;97747.56;5089886;28;20406;-74
2023/07/17 08:35:43;;;;;;;11.00;5.23;;;;;;;21.29;100.00;97746.56;5089595;28;20795;-74
2023/07/17 08:38:09;;;;;;;8.02;4.82;;;;;;;21.23;100.00;97746.72;5090196;28;20451;-73
2023/07/17 08:40:39;;;;;;;8.93;5.18;;;;;;;21.24;100.00;97752.91;5070310;28;20438;-73
2023/07/17 08:43:06;;;;;;;8.70;5.20;;;;;;;21.35;100.00;97756.13;5086840;28;20725;-74
2023/07/17 08:45:34;;;;;;;7.93;4.82;;;;;;;21.47;100.00;97746.34;5089640;28;20752;-73
2023/07/17 08:48:03;;;;;;;5.43;4.10;;;;;;;21.57;100.00;97746.06;5087938;28;20448;-75
2023/07/17 08:50:30;;;;;;;8.45;4.55;;;;;;;21.68;100.00;97751.94;5089483;28;20416;-74
2023/07/17 08:52:56;;;;;;;8.60;4.63;;;;;;;21.76;100.00;97753.84;5089065;28;20475;-74
2023/07/17 08:55:23;;;;;;;11.65;5.28;;;;;;;21.80;100.00;97756.72;5088930;28;20507;-73
2023/07/17 08:57:54;;;;;;;9.20;4.60;;;;;;;21.76;100.00;97763.84;5089162;28;20401;-73
2023/07/17 09:00:23;;;;;;;6.45;3.90;;;;;;;21.82;100.00;97759.88;5088892;28;20440;-74
2023/07/17 09:02:49;;;;;;;11.43;5.57;;;;;;;21.91;100.00;97763.38;5089399;28;20772;-75
2023/07/17 09:05:17;;;;;;;9.30;4.68;;;;;;;21.87;100.00;97768.63;5090000;28;20390;-75
2023/07/17 09:07:43;;;;;;;10.93;6.00;;;;;;;21.93;100.00;97761.19;5090359;28;20410;-74
2023/07/17 09:10:17;;;;;;;9.32;5.40;;;;;;;21.86;100.00;97763.53;5090469;28;20420;-76
2023/07/17 09:12:48;;;;;;;10.88;5.75;;;;;;;21.80;100.00;97762.88;5089386;28;20813;-75
2023/07/17 09:15:15;;;;;;;11.63;5.90;;;;;;;21.83;100.00;97751.47;5090156;28;20401;-73
2023/07/17 09:17:43;;;;;;;9.73;5.05;;;;;;;21.76;100.00;97761.13;5090225;28;20390;-74
2023/07/17 09:20:10;;;;;;;9.30;5.22;;;;;;;22.05;100.00;97760.56;5090021;28;20499;-74
2023/07/17 09:22:39;;;;;;;12.43;5.18;;;;;;;22.28;100.00;97752.03;5090178;28;20497;-73
2023/07/17 09:25:06;;;;;;;8.48;5.05;;;;;;;22.27;100.00;97755.03;5090245;28;20544;-73
2023/07/17 09:27:44;;;;;;;9.48;5.50;;;;;;;22.19;100.00;97756.63;5090292;28;20485;-74
2023/07/17 09:30:14;;;;;;;9.18;5.13;;;;;;;22.08;100.00;97749.16;5089858;28;21178;-73
2023/07/17 09:32:40;;;;;;;6.90;4.60;;;;;;;22.03;100.00;97757.44;5087874;28;20411;-77
2023/07/17 09:35:08;;;;;;;8.45;4.93;;;;;;;22.05;100.00;97749.78;5084026;28;20406;-75
2023/07/17 09:37:35;;;;;;;6.35;4.30;;;;;;;22.16;100.00;97753.78;5087244;28;20901;-73
2023/07/17 09:40:07;;;;;;;7.35;4.97;;;;;;;22.26;100.00;97742.66;5085443;28;20480;-73
2023/07/17 09:42:34;;;;;;;8.88;5.20;;;;;;;22.53;100.00;97749.63;5070274;28;20395;-73
2023/07/17 09:45:01;;;;;;;10.87;5.40;;;;;;;22.71;100.00;97753.88;5074294;28;20399;-74
2023/07/17 09:47:27;;;;;;;9.32;5.45;;;;;;;22.84;100.00;97750.25;5074628;28;20496;-75
2023/07/17 09:49:54;;;;;;;10.05;5.22;;;;;;;22.69;100.00;97748.81;5074602;28;20905;-73
2023/07/17 09:52:21;;;;;;;8.60;4.97;;;;;;;22.74;100.00;97753.28;5082157;28;20489;-74
2023/07/17 09:54:53;;;;;;;9.30;5.68;;;;;;;22.59;100.00;97748.34;5074376;28;20400;-75
2023/07/17 09:57:29;;;;;;;11.65;5.88;;;;;;;22.47;100.00;97750.91;5074419;28;20408;-74
2023/07/17 09:59:58;;;;;;;9.20;5.60;;;;;;;22.59;100.00;97748.34;5087052;28;20465;-76
2023/07/17 10:02:29;;;;;;;8.40;4.97;;;;;;;22.64;100.00;97748.97;5094393;28;20425;-74
2023/07/17 10:04:58;;;;;;;9.18;5.10;;;;;;;22.80;100.00;97745.78;5093964;28;20482;-75
2023/07/17 10:07:25;;;;;;;14.52;5.65;;;;;;;22.87;100.00;97751.50;5094433;28;20413;-74
2023/07/17 10:09:55;;;;;;;8.95;5.10;;;;;;;22.70;100.00;97750.38;5093878;28;20565;-73
2023/07/17 10:12:23;;;;;;;10.43;5.60;;;;;;;22.72;100.00;97747.38;5085843;28;20797;-75
2023/07/17 10:14:49;;;;;;;12.05;5.38;;;;;;;22.84;100.00;97736.75;5093670;28;20767;-75
2023/07/17 10:17:29;;;;;;;9.87;5.43;;;;;;;23.26;100.00;97745.81;5093966;28;20394;-74
2023/07/17 10:19:58;;;;;;;10.40;5.07;;;;;;;23.57;95.29;97742.81;5093891;28;20390;-73
2023/07/17 10:22:32;;;;;;;8.98;4.95;;;;;;;23.22;91.40;97742.19;5090007;28;20413;-73
2023/07/17 10:25:00;;;;;;;9.27;4.90;;;;;;;22.83;91.26;97737.06;5091014;28;20436;-74
2023/07/17 10:27:43;;;;;;;11.02;5.47;;;;;;;22.95;100.00;97734.47;5080490;28;20398;-74
2023/07/17 10:30:23;;;;;;;10.43;5.43;;;;;;;23.02;100.00;97730.16;5081560;28;20532;-73
2023/07/17 10:33:07;;;;;;;10.63;4.72;;;;;;;23.12;96.10;97731.72;5077621;28;20908;-74
2023/07/17 10:35:47;;;;;;;9.70;5.13;;;;;;;23.06;100.00;97724.94;5089519;28;20860;-76
2023/07/17 10:38:16;;;;;;;8.70;5.10;;;;;;;22.98;100.00;97728.44;5077603;28;20395;-76
2023/07/17 10:40:42;;;;;;;7.30;4.72;;;;;;;22.98;100.00;97723.84;5077233;28;20392;-76
2023/07/17 10:43:17;;;;;;;6.15;4.90;;;;;;;23.14;100.00;97724.91;5075138;28;20396;-75
2023/07/17 10:45:45;;;;;;;11.07;5.30;;;;;;;23.64;100.00;97739.59;5077729;28;20529;-74
2023/07/17 10:48:12;;;;;;;8.77;4.72;;;;;;;23.75;100.00;97724.59;5077131;28;20396;-74
2023/07/17 10:50:39;;;;;;;9.23;4.95;;;;;;;23.95;100.00;97723.81;5077526;28;20423;-74
2023/07/17 10:53:06;;;;;;;7.18;4.80;;;;;;;24.10;100.00;97722.44;5083299;28;20417;-71
2023/07/17 10:55:32;;;;;;;8.38;4.82;;;;;;;24.28;95.13;97705.75;5091778;28;20447;-72
2023/07/17 10:58:01;;;;;;;8.10;4.88;;;;;;;24.32;100.00;97702.38;5093194;28;20489;-73
2023/07/17 11:00:30;;;;;;;8.32;4.93;;;;;;;24.40;100.00;97704.22;5092510;28;20648;-72
2023/07/17 11:02:56;;;;;;;11.73;5.30;;;;;;;24.63;82.54;97710.84;5092464;28;20402;-72
2023/07/17 11:05:23;;;;;;;10.55;5.53;;;;;;;24.52;96.32;97704.25;5092358;28;20414;-73
2023/07/17 11:07:49;;;;;;;7.40;4.90;;;;;;;24.59;91.98;97699.06;5092898;28;20447;-72
2023/07/17 11:10:15;;;;;;;17.58;5.72;;;;;;;24.78;83.70;97710.19;5089220;28;20449;-72
2023/07/17 11:12:42;;;;;;;6.82;4.38;;;;;;;24.69;100.00;97699.47;5085759;28;20397;-72
2023/07/17 11:15:14;;;;;;;5.53;4.38;;;;;;;24.69;100.00;97698.66;5092557;28;20394;-72
2023/07/17 11:17:42;;;;;;;13.37;5.07;;;;;;;24.71;89.19;97699.13;5092709;28;20775;-72
2023/07/17 11:20:09;;;;;;;7.45;4.90;;;;;;;24.76;97.48;97698.91;5092499;28;20891;-72
2023/07/17 11:22:37;;;;;;;8.25;4.78;;;;;;;24.54;91.46;97704.72;5092437;28;20876;-72